This is the latest recevied weather packets stored in our database for station/object DH9SB-6. If no packets are shown the sender has not sent any weather packets the latest 10 day(s).
| Time | Temp. | Humidity | Pressure | Rain* | Wind** | Luminosity | Snow |
|---|---|---|---|---|---|---|---|
| 1787404048 | 20.56° C | 55% | - | 0 mm | - | - | - |
| 1787403472 | 20.56° C | 56% | - | 0 mm | - | - | - |
| 1787402848 | 20° C | 59% | - | 0 mm | - | - | - |
| 1787402272 | 18.89° C | 60% | - | 0 mm | - | - | - |
| 1787401649 | 19.44° C | 60% | - | 0 mm | - | - | - |
| 1787401072 | 20.56° C | 57% | - | 0 mm | - | - | - |
| 1787400449 | 20.56° C | 60% | - | 0 mm | - | - | - |
| 1787399872 | 19.44° C | 62% | - | 0 mm | - | - | - |
| 1787399248 | 20° C | 61% | - | 0 mm | - | - | - |
| 1787398672 | 20° C | 61% | - | 0 mm | - | - | - |
| 1787398048 | 19.44° C | 64% | - | 0 mm | - | - | - |
| 1787397472 | 18.33° C | 67% | - | 0 mm | - | - | - |
| 1787396848 | 18.89° C | 65% | - | 0 mm | - | - | - |
| 1787396272 | 19.44° C | 66% | - | 0 mm | - | - | - |
| 1787395648 | 18.33° C | 72% | - | 0 mm | - | - | - |
| 1787395074 | 17.78° C | 72% | - | 0 mm | - | - | - |
| 1787394448 | 17.78° C | 72% | - | 0 mm | - | - | - |
| 1787393873 | 18.33° C | 72% | - | 0 mm | - | - | - |
| 1787393248 | 17.78° C | 72% | - | 0 mm | - | - | - |
| 1787392672 | 18.33° C | 73% | - | 0 mm | - | - | - |
| 1787392048 | 18.33° C | 73% | - | 0 mm | - | - | - |
| 1787391472 | 18.33° C | 77% | - | 0.25 mm | - | - | - |
| 1787390849 | 17.78° C | 84% | - | 0.25 mm | - | - | - |
| 1787390272 | 16.67° C | 91% | - | 1.78 mm | - | - | - |
| 1787389649 | 15.56° C | 92% | - | 3.05 mm | - | - | - |
* Rain latest hour (hover to see other rain measurements)
** Current wind speed in m/s (hover to see current wind gust speed)